Huvudsida
METAR-TAF:

METAR-TAF

Flygplatser :

Langkawi, Malaysia

latitud: 06-20N, longitud: 099-44E, höjd: 8 m

Aktuellt väderrapport

Denna rapport gjordes för 51 minuter sedan, klockan 20:00 UTC
Vind 3 kt varierande vindriktning
Temperatur 28°C
Fuktighet 74%
Tryck 1010 hPa
Sikt 10 km eller mer
Få moln på en höjd av 2500 ft
Brutna moln på en höjd av 28000 ft

METAR: WMKL 212000Z VRB03KT 9999 FEW025 BKN280 28/23 Q1010

Tid: 04:51 (20:51 UTC)

Väderprognos

Denna rapport gjordes för 3 timmar och 51 minuter sedan, klockan 17:00 UTC
Prognos gäller från 21 kl. 18 UTC till 22 kl. 18 UTC
Vind 5 kt från nordost
Sikt 10 km eller mer
Få moln på en höjd av 2600 ft
Spridda moln på en höjd av 14000 ft
Brutna moln på en höjd av 28000 ft

TAF: WMKL 211700Z 2118/2218 05005KT 9999 FEW026 SCT140 BKN280

Aktuella väderrapporter och prognoser från 4000 flygplatser (METAR- och TAF-rapporter).

De tillgängliga stationerna syns som gula och röda prickar på kartan.

För musen över prickarna för att se namnen på stationerna.

Klicka sedan för att få väderrapporter och prognoser.

För att ändra kartan: Klicka på de gröna knapparna med ett svart kors på för att zooma in; den gröna knappen med ett streck på för att zooma ut; eller på de gröna pilarna för angränsande kartor.


METAR-TAF: